Time;durP1;ratioP1;P1;durP2;ratioP2;P2;SDS_P1;SDS_P2;PMS_P1;PMS_P2;Temp;Humidity;BMP_temperature;BMP_pressure;BME280_temperature;BME280_humidity;BME280_pressure;Samples;Min_cycle;Max_cycle;Signal;HPM_P1;HPM_P2
2023/01/20 00:00:47;;;;;;;;;;;1.60;99.90;;;;;;5033300;28;19909;-62
2023/01/20 00:03:12;;;;;;;;;;;1.60;99.90;;;;;;5031912;28;20380;-62
2023/01/20 00:05:38;;;;;;;;;;;1.60;99.90;;;;;;5033272;28;19909;-62
2023/01/20 00:08:03;;;;;;;;;;;1.60;99.90;;;;;;5032735;28;19916;-62
2023/01/20 00:10:29;;;;;;;;;;;1.60;99.90;;;;;;5033003;28;20286;-62
2023/01/20 00:12:54;;;;;;;;;;;1.60;99.90;;;;;;5033137;28;19909;-62
2023/01/20 00:15:20;;;;;;;;;;;1.60;99.90;;;;;;5032788;28;19949;-62
2023/01/20 00:17:45;;;;;;;;;;;1.70;99.90;;;;;;5032768;28;19909;-62
2023/01/20 00:20:11;;;;;;;;;;;1.70;99.90;;;;;;5032749;28;19913;-62
2023/01/20 00:22:41;;;;;;;;;;;1.70;99.90;;;;;;5032769;28;19909;-62
2023/01/20 00:25:08;;;;;;;;;;;1.70;99.90;;;;;;5032938;28;19913;-62
2023/01/20 00:27:33;;;;;;;;;;;1.70;99.90;;;;;;5032870;28;20426;-62
2023/01/20 00:29:59;;;;;;;;;;;1.70;99.90;;;;;;5032992;28;19909;-62
2023/01/20 00:32:24;;;;;;;;;;;1.70;99.90;;;;;;5032840;28;19909;-62
2023/01/20 00:34:49;;;;;;;;;;;1.70;99.90;;;;;;5032553;28;19916;-62
2023/01/20 00:37:15;;;;;;;;;;;1.70;99.90;;;;;;5032277;28;19928;-62
2023/01/20 00:39:40;;;;;;;;;;;1.80;99.90;;;;;;5032380;28;20398;-62
2023/01/20 00:42:06;;;;;;;;;;;1.70;99.90;;;;;;5032429;28;20017;-62
2023/01/20 00:44:31;;;;;;;;;;;1.80;99.90;;;;;;5032400;28;19909;-62
2023/01/20 00:46:57;;;;;;;;;;;1.80;99.90;;;;;;5032369;28;19909;-62
2023/01/20 00:49:22;;;;;;;;;;;1.80;99.90;;;;;;5032316;28;19915;-62
2023/01/20 00:51:48;;;;;;;;;;;1.90;99.90;;;;;;5032520;28;19965;-62
2023/01/20 00:54:13;;;;;;;;;;;1.90;99.90;;;;;;5032477;28;19909;-62
2023/01/20 00:56:39;;;;;;;;;;;1.90;99.90;;;;;;5032096;28;19913;-62
2023/01/20 00:59:04;;;;;;;;;;;1.90;99.90;;;;;;5032193;28;19949;-62
2023/01/20 01:01:29;;;;;;;;;;;1.90;99.90;;;;;;5032392;28;19916;-62
2023/01/20 01:03:55;;;;;;;;;;;1.80;99.90;;;;;;5032050;28;19910;-62
2023/01/20 01:06:22;;;;;;;;;;;1.90;99.90;;;;;;5032004;28;20401;-62
2023/01/20 01:08:47;;;;;;;;;;;1.90;99.90;;;;;;5031998;28;19975;-62
2023/01/20 01:11:13;;;;;;;;;;;1.90;99.90;;;;;;5031961;27;19909;-62
2023/01/20 01:13:39;;;;;;;;;;;1.80;99.90;;;;;;5031915;28;19913;-62
2023/01/20 01:16:08;;;;;;;;;;;1.90;99.90;;;;;;5031900;28;19913;-62
2023/01/20 01:18:34;;;;;;;;;;;1.80;99.90;;;;;;5030603;28;20288;-62
2023/01/20 01:21:04;;;;;;;;;;;1.90;99.90;;;;;;5031133;28;19909;-62
2023/01/20 01:23:30;;;;;;;;;;;1.80;99.90;;;;;;5031825;28;19909;-62
2023/01/20 01:25:55;;;;;;;;;;;1.90;99.90;;;;;;5031755;28;19909;-62
2023/01/20 01:28:20;;;;;;;;;;;1.90;99.90;;;;;;5031740;28;19913;-62
2023/01/20 01:30:46;;;;;;;;;;;1.90;99.90;;;;;;5031930;28;19958;-62
2023/01/20 01:33:11;;;;;;;;;;;1.90;99.90;;;;;;5031931;28;19945;-62
2023/01/20 01:35:37;;;;;;;;;;;1.90;99.90;;;;;;5031417;28;20401;-62
2023/01/20 01:38:02;;;;;;;;;;;1.90;99.90;;;;;;5031828;28;19909;-62
2023/01/20 01:40:28;;;;;;;;;;;1.90;99.90;;;;;;5031642;28;20362;-62
2023/01/20 01:42:53;;;;;;;;;;;1.90;99.90;;;;;;5031725;28;20282;-62
2023/01/20 01:45:21;;;;;;;;;;;1.80;99.90;;;;;;5031467;28;20295;-62
2023/01/20 01:47:48;;;;;;;;;;;1.80;99.90;;;;;;5031410;28;19909;-62
2023/01/20 01:50:16;;;;;;;;;;;1.80;99.90;;;;;;5031653;28;19909;-62
2023/01/20 01:52:43;;;;;;;;;;;1.80;99.90;;;;;;5031614;28;20323;-62
2023/01/20 01:55:09;;;;;;;;;;;1.80;99.90;;;;;;5031386;28;20421;-62
2023/01/20 01:57:35;;;;;;;;;;;1.80;99.90;;;;;;5031457;28;20060;-62
2023/01/20 02:00:01;;;;;;;;;;;1.70;99.90;;;;;;5031613;28;19913;-62
2023/01/20 02:02:26;;;;;;;;;;;1.80;99.90;;;;;;5031190;28;19949;-62
2023/01/20 02:04:52;;;;;;;;;;;1.70;99.90;;;;;;5031120;28;20393;-62
2023/01/20 02:07:19;;;;;;;;;;;1.80;99.90;;;;;;5031108;28;19916;-64
2023/01/20 02:09:45;;;;;;;;;;;1.80;99.90;;;;;;5031371;28;19916;-62
2023/01/20 02:12:12;;;;;;;;;;;1.70;99.90;;;;;;5031320;28;19909;-62
2023/01/20 02:14:40;;;;;;;;;;;1.70;99.90;;;;;;5031090;28;19909;-62
2023/01/20 02:17:12;;;;;;;;;;;1.70;99.90;;;;;;5030910;28;19956;-62
2023/01/20 02:19:58;;;;;;;;;;;1.70;99.90;;;;;;5031190;28;20274;-62
2023/01/20 02:25:50;;;;;;;;;;;1.70;99.90;;;;;;5137938;27;19913;-61
2023/01/20 02:28:36;;;;;;;;;;;1.70;99.90;;;;;;5047363;28;19920;-61
2023/01/20 02:31:21;;;;;;;;;;;1.70;99.90;;;;;;5047427;28;20290;-61
2023/01/20 02:33:52;;;;;;;;;;;1.70;99.90;;;;;;5047329;28;20012;-61
2023/01/20 02:36:25;;;;;;;;;;;1.70;99.90;;;;;;5047318;28;20291;-61
2023/01/20 02:38:55;;;;;;;;;;;1.70;99.90;;;;;;5047601;27;20374;-61
2023/01/20 02:41:33;;;;;;;;;;;1.70;99.90;;;;;;5047266;28;19909;-61
2023/01/20 02:44:18;;;;;;;;;;;1.70;99.90;;;;;;5046259;28;19917;-61
2023/01/20 02:46:50;;;;;;;;;;;1.70;99.90;;;;;;5046145;28;19916;-61
2023/01/20 02:49:36;;;;;;;;;;;1.70;99.90;;;;;;5047422;27;19913;-61
2023/01/20 02:52:09;;;;;;;;;;;1.70;99.90;;;;;;5047044;28;19909;-61
2023/01/20 02:54:36;;;;;;;;;;;1.70;99.90;;;;;;5047331;27;20386;-61
2023/01/20 02:57:04;;;;;;;;;;;1.70;99.90;;;;;;5047076;28;19916;-60
2023/01/20 02:59:31;;;;;;;;;;;1.70;99.90;;;;;;5047216;27;20008;-61
2023/01/20 03:02:03;;;;;;;;;;;1.70;99.90;;;;;;5047224;27;20425;-61
2023/01/20 03:04:33;;;;;;;;;;;1.70;99.90;;;;;;5047104;27;19913;-61
2023/01/20 03:06:59;;;;;;;;;;;1.70;99.90;;;;;;5046847;28;19909;-61
2023/01/20 03:09:29;;;;;;;;;;;1.60;99.90;;;;;;5046841;28;19958;-61
2023/01/20 03:11:57;;;;;;;;;;;1.60;99.90;;;;;;5046783;28;20003;-61
2023/01/20 03:14:23;;;;;;;;;;;1.60;99.90;;;;;;5047091;27;19916;-61
2023/01/20 03:16:49;;;;;;;;;;;1.60;99.90;;;;;;5046739;28;19910;-61
2023/01/20 03:19:15;;;;;;;;;;;1.60;99.90;;;;;;5046715;28;19916;-61
2023/01/20 03:21:41;;;;;;;;;;;1.60;99.90;;;;;;5046932;27;19991;-61
2023/01/20 03:24:06;;;;;;;;;;;1.60;99.90;;;;;;5046488;27;19922;-61
2023/01/20 03:26:32;;;;;;;;;;;1.60;99.90;;;;;;5046567;28;19909;-61
2023/01/20 03:28:58;;;;;;;;;;;1.60;99.90;;;;;;5045676;28;19982;-61
2023/01/20 03:31:25;;;;;;;;;;;1.60;99.90;;;;;;5046799;27;19989;-61
2023/01/20 03:33:52;;;;;;;;;;;1.60;99.90;;;;;;5046404;28;20286;-61
2023/01/20 03:36:19;;;;;;;;;;;1.60;99.90;;;;;;5035071;28;19910;-61
2023/01/20 03:38:44;;;;;;;;;;;1.60;99.90;;;;;;5031889;28;19910;-61
2023/01/20 03:41:16;;;;;;;;;;;1.60;99.90;;;;;;5033130;28;19919;-61
2023/01/20 03:43:46;;;;;;;;;;;1.60;99.90;;;;;;5033292;28;20277;-62
2023/01/20 03:46:18;;;;;;;;;;;1.60;99.90;;;;;;5033021;28;19910;-61
2023/01/20 03:48:48;;;;;;;;;;;1.60;99.90;;;;;;5033019;28;19909;-61
2023/01/20 03:51:33;;;;;;;;;;;1.60;99.90;;;;;;5033244;28;19916;-61
2023/01/20 03:54:02;;;;;;;;;;;1.60;99.90;;;;;;5032880;28;19959;-61
2023/01/20 03:56:34;;;;;;;;;;;1.60;99.90;;;;;;5032850;28;19919;-61
2023/01/20 03:59:01;;;;;;;;;;;1.60;99.90;;;;;;5033062;28;19909;-61
2023/01/20 04:01:30;;;;;;;;;;;1.60;99.90;;;;;;5032740;28;19909;-61
2023/01/20 04:03:56;;;;;;;;;;;1.60;99.90;;;;;;5031523;28;19913;-61
2023/01/20 04:06:24;;;;;;;;;;;1.60;99.90;;;;;;5032701;28;19910;-61
2023/01/20 04:08:51;;;;;;;;;;;1.60;99.90;;;;;;5032971;28;20306;-61
2023/01/20 04:11:17;;;;;;;;;;;1.60;99.90;;;;;;5032905;28;19916;-61
2023/01/20 04:13:42;;;;;;;;;;;1.60;99.90;;;;;;5032609;28;20426;-61
2023/01/20 04:16:10;;;;;;;;;;;1.60;99.90;;;;;;5031471;28;19918;-61
2023/01/20 04:18:39;;;;;;;;;;;1.60;99.90;;;;;;5032613;28;19913;-61
2023/01/20 04:21:04;;;;;;;;;;;1.60;99.90;;;;;;5032504;28;19917;-62
2023/01/20 04:23:32;;;;;;;;;;;1.60;99.90;;;;;;5031123;28;19921;-61
2023/01/20 04:25:57;;;;;;;;;;;1.60;99.90;;;;;;5032690;28;19914;-61
2023/01/20 04:28:23;;;;;;;;;;;1.50;99.90;;;;;;5032641;28;20235;-61
2023/01/20 04:30:49;;;;;;;;;;;1.50;99.90;;;;;;5032319;27;19909;-61
2023/01/20 04:33:15;;;;;;;;;;;1.50;99.90;;;;;;5032593;28;20316;-61
2023/01/20 04:35:40;;;;;;;;;;;1.50;99.90;;;;;;5032259;28;19910;-61
2023/01/20 04:38:05;;;;;;;;;;;1.50;99.90;;;;;;5032288;27;20370;-61
2023/01/20 04:40:31;;;;;;;;;;;1.50;99.90;;;;;;5032472;28;20278;-61
2023/01/20 04:42:56;;;;;;;;;;;1.50;99.90;;;;;;5032121;28;20004;-61
2023/01/20 04:45:22;;;;;;;;;;;1.50;99.90;;;;;;5032144;28;20397;-63
2023/01/20 04:47:47;;;;;;;;;;;1.50;99.90;;;;;;5031276;28;19913;-61
2023/01/20 04:50:14;;;;;;;;;;;1.50;99.90;;;;;;5032330;28;19992;-61
2023/01/20 04:52:39;;;;;;;;;;;1.50;99.90;;;;;;5032045;28;20317;-61
2023/01/20 04:55:05;;;;;;;;;;;1.50;99.90;;;;;;5032263;28;19913;-62
2023/01/20 04:57:30;;;;;;;;;;;1.50;99.90;;;;;;5031921;28;19945;-61
2023/01/20 04:59:56;;;;;;;;;;;1.50;99.90;;;;;;5032172;28;19909;-62
2023/01/20 05:02:21;;;;;;;;;;;1.50;99.90;;;;;;5030657;28;19916;-62
2023/01/20 05:04:47;;;;;;;;;;;1.50;99.90;;;;;;5031800;28;20370;-61
2023/01/20 05:07:12;;;;;;;;;;;1.50;99.90;;;;;;5031816;28;19932;-61
2023/01/20 05:09:38;;;;;;;;;;;1.50;99.90;;;;;;5031755;28;19961;-61
2023/01/20 05:12:03;;;;;;;;;;;1.50;99.90;;;;;;5030556;28;19940;-62
2023/01/20 05:14:29;;;;;;;;;;;1.50;99.90;;;;;;5031673;28;19916;-62
2023/01/20 05:16:54;;;;;;;;;;;1.50;99.90;;;;;;5031674;28;19909;-61
2023/01/20 05:19:20;;;;;;;;;;;1.50;99.90;;;;;;5031892;28;19913;-61
2023/01/20 05:21:45;;;;;;;;;;;1.60;99.90;;;;;;5031840;28;19909;-61
2023/01/20 05:24:11;;;;;;;;;;;1.60;99.90;;;;;;5031371;28;19921;-62
2023/01/20 05:26:36;;;;;;;;;;;1.60;99.90;;;;;;5031515;28;19910;-61
2023/01/20 05:29:02;;;;;;;;;;;1.50;99.90;;;;;;5031457;28;20032;-61
2023/01/20 05:31:27;;;;;;;;;;;1.60;99.90;;;;;;5031417;28;19913;-62
2023/01/20 05:33:53;;;;;;;;;;;1.60;99.90;;;;;;5031394;28;19909;-61
2023/01/20 05:36:18;;;;;;;;;;;1.60;99.90;;;;;;5031595;28;19909;-61
2023/01/20 05:38:44;;;;;;;;;;;1.60;99.90;;;;;;5030179;28;19958;-61
2023/01/20 05:41:09;;;;;;;;;;;1.60;99.90;;;;;;5031604;28;19955;-61
2023/01/20 05:43:35;;;;;;;;;;;1.60;99.90;;;;;;5031277;28;19920;-62
2023/01/20 05:46:01;;;;;;;;;;;1.60;99.90;;;;;;5031215;28;19916;-61
2023/01/20 05:48:26;;;;;;;;;;;1.60;99.90;;;;;;5031155;28;19941;-61
2023/01/20 05:50:52;;;;;;;;;;;1.50;99.90;;;;;;5031422;28;19909;-61
2023/01/20 05:53:17;;;;;;;;;;;1.60;99.90;;;;;;5031114;28;19913;-61
2023/01/20 05:55:43;;;;;;;;;;;1.60;99.90;;;;;;5031074;28;19910;-61
2023/01/20 05:58:09;;;;;;;;;;;1.50;99.90;;;;;;5030991;28;19909;-62
2023/01/20 06:00:35;;;;;;;;;;;1.50;99.90;;;;;;5029932;28;20007;-62
2023/01/20 06:03:00;;;;;;;;;;;1.60;99.90;;;;;;5031150;28;20050;-62
2023/01/20 06:05:26;;;;;;;;;;;1.60;99.90;;;;;;5030897;28;19931;-61
2023/01/20 06:07:54;;;;;;;;;;;1.60;99.90;;;;;;5030901;28;20017;-61
2023/01/20 06:10:20;;;;;;;;;;;1.50;99.90;;;;;;5031121;28;19917;-61
2023/01/20 06:12:54;;;;;;;;;;;1.60;99.90;;;;;;5031101;28;19909;-61
2023/01/20 06:15:19;;;;;;;;;;;1.50;99.90;;;;;;5030855;28;19909;-61
2023/01/20 06:17:45;;;;;;;;;;;1.60;99.90;;;;;;5030796;28;20336;-61
2023/01/20 06:20:10;;;;;;;;;;;1.50;99.90;;;;;;5030704;28;19952;-62
2023/01/20 06:22:36;;;;;;;;;;;1.60;99.90;;;;;;5030708;28;19958;-62
2023/01/20 06:25:02;;;;;;;;;;;1.50;99.90;;;;;;5030454;28;19921;-61
2023/01/20 06:27:27;;;;;;;;;;;1.50;99.90;;;;;;5030895;28;19921;-62
2023/01/20 06:29:53;;;;;;;;;;;1.60;99.90;;;;;;5030759;28;20355;-62
2023/01/20 06:32:18;;;;;;;;;;;1.50;99.90;;;;;;5030851;28;20390;-62
2023/01/20 06:34:44;;;;;;;;;;;1.60;99.90;;;;;;5030578;28;19913;-61
2023/01/20 06:37:10;;;;;;;;;;;1.60;99.90;;;;;;5030760;28;20008;-62
2023/01/20 06:39:36;;;;;;;;;;;1.60;99.90;;;;;;5030743;28;19967;-61
2023/01/20 06:42:02;;;;;;;;;;;1.60;99.90;;;;;;5030708;28;19909;-62
2023/01/20 06:44:27;;;;;;;;;;;1.60;99.90;;;;;;5030304;28;20299;-61
2023/01/20 06:46:53;;;;;;;;;;;1.60;99.90;;;;;;5030636;28;19994;-61
2023/01/20 06:49:18;;;;;;;;;;;1.60;99.90;;;;;;5030580;28;20359;-61
2023/01/20 06:51:44;;;;;;;;;;;1.60;99.90;;;;;;5030275;28;19909;-61
2023/01/20 06:54:09;;;;;;;;;;;1.50;99.90;;;;;;5030551;28;19957;-62
2023/01/20 06:56:35;;;;;;;;;;;1.50;99.90;;;;;;5030564;28;20008;-61
2023/01/20 06:59:00;;;;;;;;;;;1.60;99.90;;;;;;5030477;28;19913;-61
2023/01/20 07:01:27;;;;;;;;;;;1.60;99.90;;;;;;5030478;28;19915;-63
2023/01/20 07:03:53;;;;;;;;;;;1.50;99.90;;;;;;5030073;28;19968;-61
2023/01/20 07:06:25;;;;;;;;;;;1.50;99.90;;;;;;5030130;28;19909;-61
2023/01/20 07:08:50;;;;;;;;;;;1.50;99.90;;;;;;5030159;28;19956;-61
2023/01/20 07:11:16;;;;;;;;;;;1.50;99.90;;;;;;5032339;28;19944;-61
2023/01/20 07:13:42;;;;;;;;;;;1.50;99.90;;;;;;5033766;27;19914;-61
2023/01/20 07:16:07;;;;;;;;;;;1.50;99.90;;;;;;5033483;28;19917;-62
2023/01/20 07:18:33;;;;;;;;;;;1.50;99.90;;;;;;5033727;28;19913;-61
2023/01/20 07:20:59;;;;;;;;;;;1.50;99.90;;;;;;5033401;28;20281;-61
2023/01/20 07:23:25;;;;;;;;;;;1.50;99.90;;;;;;5033274;28;19925;-61
2023/01/20 07:26:06;;;;;;;;;;;1.60;99.90;;;;;;5033333;28;19910;-61
2023/01/20 07:28:32;;;;;;;;;;;1.50;99.90;;;;;;5033577;28;19909;-61
2023/01/20 07:31:02;;;;;;;;;;;1.60;99.90;;;;;;5033222;28;19996;-61
2023/01/20 07:33:27;;;;;;;;;;;1.60;99.90;;;;;;5033229;28;20289;-61
2023/01/20 07:35:53;;;;;;;;;;;1.60;99.90;;;;;;5032745;28;19917;-61
2023/01/20 07:38:18;;;;;;;;;;;1.60;99.90;;;;;;5030960;28;19917;-61
2023/01/20 07:40:44;;;;;;;;;;;1.60;99.90;;;;;;5033225;27;19916;-61
2023/01/20 07:43:09;;;;;;;;;;;1.60;99.90;;;;;;5032942;28;19916;-61
2023/01/20 07:45:35;;;;;;;;;;;1.60;99.90;;;;;;5032818;28;19909;-62
2023/01/20 07:48:02;;;;;;;;;;;1.60;99.90;;;;;;5032819;28;20286;-61
2023/01/20 07:50:28;;;;;;;;;;;1.60;99.90;;;;;;5032994;28;19920;-61
2023/01/20 07:52:53;;;;;;;;;;;1.60;99.90;;;;;;5031818;28;19909;-62
2023/01/20 07:55:19;;;;;;;;;;;1.60;99.90;;;;;;5032741;28;19965;-61
2023/01/20 07:57:44;;;;;;;;;;;1.70;99.90;;;;;;5032646;28;20263;-62
2023/01/20 08:00:10;;;;;;;;;;;1.70;99.90;;;;;;5032613;28;20012;-62
2023/01/20 08:02:37;;;;;;;;;;;1.70;99.90;;;;;;5032817;28;19913;-62
2023/01/20 08:05:03;;;;;;;;;;;1.70;99.90;;;;;;5031326;28;20374;-62
2023/01/20 08:07:28;;;;;;;;;;;1.70;99.90;;;;;;5032864;28;19914;-61
2023/01/20 08:09:54;;;;;;;;;;;1.70;99.90;;;;;;5032530;28;19945;-61
2023/01/20 08:12:19;;;;;;;;;;;1.70;99.90;;;;;;5031198;28;19910;-61
2023/01/20 08:14:45;;;;;;;;;;;1.80;99.90;;;;;;5032470;28;19931;-61
2023/01/20 08:17:10;;;;;;;;;;;1.80;99.90;;;;;;5032327;28;19910;-61
2023/01/20 08:19:36;;;;;;;;;;;1.80;99.90;;;;;;5078218;27;19912;-62
2023/01/20 08:22:01;;;;;;;;;;;1.80;99.90;;;;;;5032443;28;19909;-62
2023/01/20 08:24:27;;;;;;;;;;;1.80;99.90;;;;;;5030925;28;19928;-62
2023/01/20 08:26:52;;;;;;;;;;;1.80;99.90;;;;;;5031733;28;19917;-61
2023/01/20 08:29:17;;;;;;;;;;;1.80;99.90;;;;;;5032231;28;19979;-61
2023/01/20 08:31:43;;;;;;;;;;;1.80;99.90;;;;;;5032270;28;19909;-62
2023/01/20 08:34:09;;;;;;;;;;;1.90;99.90;;;;;;5032325;28;19952;-62
2023/01/20 08:36:35;;;;;;;;;;;1.90;99.90;;;;;;5031294;28;19948;-61
2023/01/20 08:39:03;;;;;;;;;;;1.90;99.90;;;;;;5032114;28;19909;-62
2023/01/20 08:41:30;;;;;;;;;;;1.90;99.90;;;;;;5032118;28;20374;-61
2023/01/20 08:43:57;;;;;;;;;;;1.90;99.90;;;;;;5032285;28;19913;-61
2023/01/20 08:46:22;;;;;;;;;;;1.90;99.90;;;;;;5031970;28;19909;-61
2023/01/20 08:48:48;;;;;;;;;;;2.00;99.90;;;;;;5030733;28;19928;-61
2023/01/20 08:51:15;;;;;;;;;;;2.10;99.90;;;;;;5032214;28;19909;-61
2023/01/20 08:53:41;;;;;;;;;;;2.00;99.90;;;;;;5032091;28;19932;-61
2023/01/20 08:56:07;;;;;;;;;;;2.10;99.90;;;;;;5031831;28;19909;-61
2023/01/20 08:58:32;;;;;;;;;;;2.10;99.90;;;;;;5032138;28;19916;-62
2023/01/20 09:00:58;;;;;;;;;;;2.10;99.90;;;;;;5032044;28;19919;-62
2023/01/20 09:03:23;;;;;;;;;;;2.20;99.90;;;;;;5031912;28;19993;-62
2023/01/20 09:05:49;;;;;;;;;;;2.20;99.90;;;;;;5031715;28;20267;-62
2023/01/20 09:08:16;;;;;;;;;;;2.20;99.90;;;;;;5031666;28;19970;-61
2023/01/20 09:10:42;;;;;;;;;;;2.30;99.90;;;;;;5031900;28;19909;-62
2023/01/20 09:13:07;;;;;;;;;;;2.30;99.90;;;;;;5031846;28;19909;-61
2023/01/20 09:15:33;;;;;;;;;;;2.40;99.90;;;;;;5031808;28;19909;-61
2023/01/20 09:17:58;;;;;;;;;;;2.40;99.90;;;;;;5031727;28;19909;-61
2023/01/20 09:20:25;;;;;;;;;;;2.40;99.90;;;;;;5031704;28;19909;-62
2023/01/20 09:22:51;;;;;;;;;;;2.50;99.90;;;;;;5031214;28;20388;-62
2023/01/20 09:25:16;;;;;;;;;;;2.50;99.90;;;;;;5031308;28;19971;-62
2023/01/20 09:27:42;;;;;;;;;;;2.50;99.90;;;;;;5031293;28;19992;-62
2023/01/20 09:30:08;;;;;;;;;;;2.50;99.90;;;;;;5031246;28;20417;-62
2023/01/20 09:32:33;;;;;;;;;;;2.50;99.90;;;;;;5030897;28;19909;-62
2023/01/20 09:34:58;;;;;;;;;;;2.50;99.90;;;;;;5030919;28;20427;-62
2023/01/20 09:46:07;;;;;;;;;;;2.40;99.90;;;;;;5026066;28;20012;-62
2023/01/20 09:54:21;;;;;;;;;;;2.50;99.90;;;;;;5030775;28;20290;-62
2023/01/20 09:56:48;;;;;;;;;;;2.50;99.90;;;;;;5030987;28;20363;-62
2023/01/20 09:59:18;;;;;;;;;;;2.60;99.90;;;;;;5031132;28;20349;-62
2023/01/20 10:01:47;;;;;;;;;;;2.60;99.90;;;;;;5031170;28;19909;-62
2023/01/20 10:04:32;;;;;;;;;;;2.60;99.90;;;;;;5030870;28;19913;-62
2023/01/20 10:07:17;;;;;;;;;;;2.60;99.90;;;;;;5030737;28;19909;-62
2023/01/20 10:09:49;;;;;;;;;;;2.60;99.90;;;;;;5030372;28;19995;-62
2023/01/20 10:12:20;;;;;;;;;;;2.70;99.90;;;;;;5030712;28;19932;-62
2023/01/20 10:14:54;;;;;;;;;;;2.70;99.90;;;;;;5030146;28;20319;-62
2023/01/20 10:17:23;;;;;;;;;;;2.70;99.90;;;;;;5030392;27;19920;-62
2023/01/20 10:19:55;;;;;;;;;;;2.80;99.90;;;;;;5030439;28;19913;-62
2023/01/20 10:22:40;;;;;;;;;;;2.80;99.90;;;;;;5030736;28;20108;-62
2023/01/20 10:25:11;;;;;;;;;;;2.80;99.90;;;;;;5029903;28;19922;-62
2023/01/20 10:27:38;;;;;;;;;;;2.80;99.90;;;;;;5030223;28;19935;-62
2023/01/20 10:30:08;;;;;;;;;;;2.70;99.90;;;;;;5030301;28;19916;-62
2023/01/20 10:32:35;;;;;;;;;;;2.80;99.90;;;;;;5030344;28;19913;-62
2023/01/20 10:35:07;;;;;;;;;;;2.80;99.90;;;;;;5030638;28;19916;-62
2023/01/20 10:37:34;;;;;;;;;;;2.80;99.90;;;;;;5030358;28;19966;-62
2023/01/20 10:40:06;;;;;;;;;;;2.80;99.90;;;;;;5030595;28;19909;-62
2023/01/20 10:42:32;;;;;;;;;;;2.80;99.90;;;;;;5030097;28;19914;-62
2023/01/20 10:44:58;;;;;;;;;;;2.90;99.90;;;;;;5029208;28;19913;-62
2023/01/20 10:47:32;;;;;;;;;;;2.90;99.90;;;;;;5033742;28;20006;-62
2023/01/20 10:50:09;;;;;;;;;;;2.90;99.90;;;;;;5034078;28;19909;-62
2023/01/20 10:52:55;;;;;;;;;;;3.00;99.90;;;;;;5034002;28;20353;-62
2023/01/20 10:55:40;;;;;;;;;;;2.90;99.90;;;;;;5033525;28;19910;-62
2023/01/20 10:58:26;;;;;;;;;;;3.00;99.90;;;;;;5033409;28;19948;-62
2023/01/20 11:00:51;;;;;;;;;;;3.00;99.90;;;;;;5033458;28;20339;-62
2023/01/20 11:03:18;;;;;;;;;;;3.00;99.90;;;;;;5033636;28;19909;-62
2023/01/20 11:05:45;;;;;;;;;;;3.00;99.90;;;;;;5033520;28;20388;-62
2023/01/20 11:08:15;;;;;;;;;;;2.90;99.90;;;;;;5033466;28;19909;-62
2023/01/20 11:10:40;;;;;;;;;;;3.00;99.90;;;;;;5033689;28;20373;-63
2023/01/20 11:13:08;;;;;;;;;;;3.00;99.90;;;;;;5033443;28;19909;-62
2023/01/20 11:15:36;;;;;;;;;;;3.10;99.90;;;;;;5033654;28;20278;-62
2023/01/20 11:21:01;;;;;;;;;;;3.10;99.90;;;;;;5070868;28;19913;-61
2023/01/20 11:23:37;;;;;;;;;;;3.10;99.90;;;;;;5086522;28;19920;-62
2023/01/20 11:26:08;;;;;;;;;;;3.20;99.90;;;;;;5070949;28;19915;-62
2023/01/20 11:28:54;;;;;;;;;;;3.20;99.90;;;;;;5070703;28;19927;-62
2023/01/20 11:31:20;;;;;;;;;;;3.10;99.90;;;;;;5070575;28;19909;-62
2023/01/20 11:33:55;;;;;;;;;;;3.20;99.90;;;;;;5070594;28;20374;-62
2023/01/20 11:36:22;;;;;;;;;;;3.30;99.90;;;;;;5070438;28;19962;-62
2023/01/20 11:38:49;;;;;;;;;;;3.30;99.90;;;;;;5070348;28;19916;-62
2023/01/20 11:41:17;;;;;;;;;;;3.30;99.90;;;;;;5070587;28;20275;-61
2023/01/20 11:43:42;;;;;;;;;;;3.20;99.90;;;;;;5070256;28;19963;-61
2023/01/20 11:46:09;;;;;;;;;;;3.20;99.90;;;;;;5070564;28;19909;-62
2023/01/20 11:48:35;;;;;;;;;;;3.20;99.90;;;;;;5070585;28;19956;-62
2023/01/20 11:51:01;;;;;;;;;;;3.20;99.90;;;;;;5070295;28;20402;-62
2023/01/20 11:53:28;;;;;;;;;;;3.10;99.90;;;;;;5070177;28;19912;-63
2023/01/20 11:58:48;;;;;;;;;;;3.10;99.90;;;;;;5091129;27;20382;-61
2023/01/20 12:01:20;;;;;;;;;;;3.20;99.90;;;;;;5092222;28;19913;-62
2023/01/20 12:03:54;;;;;;;;;;;3.30;99.90;;;;;;5090750;28;20016;-62
2023/01/20 12:06:24;;;;;;;;;;;3.30;99.90;;;;;;5090435;28;20336;-62
2023/01/20 12:09:10;;;;;;;;;;;3.40;99.90;;;;;;5091012;28;19995;-62
2023/01/20 12:11:41;;;;;;;;;;;3.40;99.90;;;;;;5090693;28;19975;-62
2023/01/20 12:14:27;;;;;;;;;;;3.40;99.90;;;;;;5090855;28;19953;-62
2023/01/20 12:16:59;;;;;;;;;;;3.50;99.90;;;;;;5090839;28;19912;-62
2023/01/20 12:19:31;;;;;;;;;;;3.50;99.90;;;;;;5090689;28;19999;-62
2023/01/20 12:21:58;;;;;;;;;;;3.50;99.90;;;;;;5090878;28;19909;-62
2023/01/20 12:24:27;;;;;;;;;;;3.50;99.90;;;;;;5090751;28;20324;-63
2023/01/20 12:26:53;;;;;;;;;;;3.50;99.90;;;;;;5090513;28;20440;-62
2023/01/20 12:29:29;;;;;;;;;;;3.40;99.90;;;;;;5090616;28;19908;-62
2023/01/20 12:31:54;;;;;;;;;;;3.50;99.90;;;;;;5090385;28;19909;-62
2023/01/20 12:34:25;;;;;;;;;;;3.40;99.90;;;;;;5090601;28;19915;-62
2023/01/20 12:36:59;;;;;;;;;;;3.40;99.90;;;;;;5090258;28;19943;-62
2023/01/20 12:39:27;;;;;;;;;;;3.40;99.90;;;;;;5089834;28;19915;-62
2023/01/20 12:42:12;;;;;;;;;;;3.40;99.90;;;;;;5090225;28;20015;-62
2023/01/20 12:47:25;;;;;;;;;;;3.30;99.90;;;;;;5070876;28;19913;-61
2023/01/20 12:49:59;;;;;;;;;;;3.30;99.90;;;;;;5070852;28;19912;-62
2023/01/20 12:52:45;;;;;;;;;;;3.30;99.90;;;;;;5070909;28;19909;-62
2023/01/20 12:55:21;;;;;;;;;;;3.40;99.90;;;;;;5070601;28;20003;-62
2023/01/20 12:58:07;;;;;;;;;;;3.40;99.90;;;;;;5070953;28;19915;-63
2023/01/20 13:00:36;;;;;;;;;;;3.40;99.90;;;;;;5070361;28;19915;-63
2023/01/20 13:03:21;;;;;;;;;;;3.60;99.90;;;;;;5070777;28;20377;-63
2023/01/20 13:06:00;;;;;;;;;;;3.70;99.90;;;;;;5070501;28;20385;-63
2023/01/20 13:08:35;;;;;;;;;;;3.70;99.90;;;;;;5070476;28;20023;-64
2023/01/20 13:11:05;;;;;;;;;;;3.70;99.90;;;;;;5085819;28;19919;-63
2023/01/20 13:13:50;;;;;;;;;;;3.70;99.90;;;;;;5070380;28;19967;-63
2023/01/20 13:16:22;;;;;;;;;;;3.70;99.90;;;;;;5070334;28;19990;-63
2023/01/20 13:19:02;;;;;;;;;;;3.70;99.90;;;;;;5070219;28;19909;-63
2023/01/20 13:21:28;;;;;;;;;;;3.80;99.90;;;;;;5070463;28;19908;-63
2023/01/20 13:23:54;;;;;;;;;;;3.80;99.90;;;;;;5070342;28;20278;-63
2023/01/20 13:26:19;;;;;;;;;;;3.90;99.90;;;;;;5069945;28;19913;-63
2023/01/20 13:28:53;;;;;;;;;;;3.90;99.90;;;;;;5070063;28;20255;-63
2023/01/20 13:31:38;;;;;;;;;;;3.90;99.90;;;;;;5069903;28;20355;-63
2023/01/20 13:34:24;;;;;;;;;;;3.90;99.90;;;;;;5069823;28;20370;-63
2023/01/20 13:37:10;;;;;;;;;;;3.90;99.90;;;;;;5069150;28;19919;-63
2023/01/20 13:39:39;;;;;;;;;;;3.90;99.90;;;;;;5069719;28;19916;-63
2023/01/20 13:42:24;;;;;;;;;;;3.90;99.90;;;;;;5069636;28;19916;-63
2023/01/20 13:45:10;;;;;;;;;;;3.80;99.90;;;;;;5069644;28;19909;-63
2023/01/20 13:47:52;;;;;;;;;;;3.70;99.90;;;;;;5089713;28;19912;-63
2023/01/20 13:50:23;;;;;;;;;;;3.70;99.90;;;;;;5090029;28;20005;-63
2023/01/20 13:58:29;;;;;;;;;;;3.70;99.90;;;;;;5070873;28;19912;-62
2023/01/20 14:00:55;;;;;;;;;;;3.70;99.90;;;;;;5070736;28;19912;-62
2023/01/20 14:03:27;;;;;;;;;;;3.70;99.90;;;;;;5070213;28;19920;-62
2023/01/20 14:05:53;;;;;;;;;;;3.70;99.90;;;;;;5070904;28;19913;-62
2023/01/20 14:08:19;;;;;;;;;;;3.80;99.90;;;;;;5070777;28;19962;-63
2023/01/20 14:10:45;;;;;;;;;;;3.70;99.90;;;;;;5070256;28;19916;-62
2023/01/20 14:13:16;;;;;;;;;;;3.70;99.90;;;;;;5070373;28;19912;-62
2023/01/20 14:15:42;;;;;;;;;;;3.70;99.90;;;;;;5070509;28;20392;-62
2023/01/20 14:18:12;;;;;;;;;;;3.70;99.90;;;;;;5070278;28;19924;-62
2023/01/20 14:20:39;;;;;;;;;;;3.60;99.90;;;;;;5070348;28;19908;-62
2023/01/20 14:23:23;;;;;;;;;;;3.60;99.90;;;;;;5070395;28;19908;-62
2023/01/20 14:25:57;;;;;;;;;;;3.70;99.90;;;;;;5070497;28;19958;-62
2023/01/20 14:28:22;;;;;;;;;;;3.60;99.90;;;;;;5070487;28;19940;-62
2023/01/20 14:30:48;;;;;;;;;;;3.60;99.90;;;;;;5069144;28;20393;-62
2023/01/20 14:33:14;;;;;;;;;;;3.60;99.90;;;;;;5070152;28;20416;-63
2023/01/20 14:35:40;;;;;;;;;;;3.50;99.90;;;;;;5070188;28;19958;-62
2023/01/20 14:38:14;;;;;;;;;;;3.50;99.90;;;;;;5070034;28;19913;-62
2023/01/20 14:40:41;;;;;;;;;;;3.50;99.90;;;;;;5070099;28;19916;-62
2023/01/20 14:43:22;;;;;;;;;;;3.40;99.90;;;;;;5069985;28;19962;-62
2023/01/20 14:45:50;;;;;;;;;;;3.30;99.90;;;;;;5070179;28;19915;-62
2023/01/20 14:48:16;;;;;;;;;;;3.20;99.90;;;;;;5070226;28;19916;-62
2023/01/20 14:50:44;;;;;;;;;;;3.20;99.90;;;;;;5070125;28;19912;-62
2023/01/20 14:53:11;;;;;;;;;;;3.10;99.90;;;;;;5070117;28;19963;-62
2023/01/20 14:55:42;;;;;;;;;;;3.10;99.90;;;;;;5069729;28;20311;-62
2023/01/20 14:58:16;;;;;;;;;;;3.00;99.90;;;;;;5088488;28;20382;-62
2023/01/20 15:00:42;;;;;;;;;;;2.90;99.90;;;;;;5090102;28;20003;-62
2023/01/20 15:03:24;;;;;;;;;;;2.90;99.90;;;;;;5090082;28;19994;-62
2023/01/20 15:06:09;;;;;;;;;;;2.70;99.90;;;;;;5090142;28;20306;-62
2023/01/20 15:16:40;;;;;;;;;;;2.70;99.90;;;;;;5091137;27;19913;-62
2023/01/20 15:19:16;;;;;;;;;;;2.70;99.90;;;;;;5091250;28;19951;-62